Time;durP1;ratioP1;P1;durP2;ratioP2;P2;SDS_P1;SDS_P2;PMS_P1;PMS_P2;Temp;Humidity;BMP_temperature;BMP_pressure;BME280_temperature;BME280_humidity;BME280_pressure;Samples;Min_cycle;Max_cycle;Signal;HPM_P1;HPM_P2
2022/11/19 00:01:12;;;;;;;35.40;16.17;;;;;;;5.71;100.00;100770.44;5047174;28;20029;-37
2022/11/19 00:03:38;;;;;;;36.47;15.70;;;;;;;5.69;100.00;100769.78;5032013;28;20430;-34
2022/11/19 00:06:08;;;;;;;31.52;14.90;;;;;;;5.67;100.00;100777.09;5034045;28;20040;-36
2022/11/19 00:08:34;;;;;;;33.70;14.90;;;;;;;5.60;100.00;100776.84;5033084;28;20040;-35
2022/11/19 00:11:11;;;;;;;34.47;14.57;;;;;;;5.52;100.00;100778.59;5036669;28;20048;-34
2022/11/19 00:13:38;;;;;;;38.77;15.47;;;;;;;5.44;100.00;100777.50;5033340;28;20045;-33
2022/11/19 00:16:06;;;;;;;26.60;12.85;;;;;;;5.42;100.00;100779.47;5049930;28;20045;-33
2022/11/19 00:18:31;;;;;;;30.05;13.57;;;;;;;5.42;100.00;100776.81;5039768;28;20026;-34
2022/11/19 00:21:08;;;;;;;39.85;15.40;;;;;;;5.34;100.00;100783.91;5050689;28;20566;-34
2022/11/19 00:23:33;;;;;;;34.70;14.77;;;;;;;5.41;100.00;100788.50;5041676;28;20025;-34
2022/11/19 00:26:03;;;;;;;39.35;15.65;;;;;;;5.39;100.00;100784.28;5038486;28;20483;-34
2022/11/19 00:28:29;;;;;;;30.55;14.80;;;;;;;5.29;100.00;100776.34;5044350;28;20020;-34
2022/11/19 00:30:59;;;;;;;34.72;15.15;;;;;;;5.33;100.00;100775.06;5041495;28;20115;-35
2022/11/19 00:33:25;;;;;;;32.65;15.40;;;;;;;5.35;100.00;100772.25;5030970;28;20033;-35
2022/11/19 00:35:50;;;;;;;35.85;15.57;;;;;;;5.33;100.00;100784.91;5033668;28;20052;-33
2022/11/19 00:38:15;;;;;;;33.70;14.98;;;;;;;5.34;100.00;100782.06;5047025;28;20040;-35
2022/11/19 00:40:41;;;;;;;33.03;15.38;;;;;;;5.24;100.00;100773.31;5042718;28;20033;-34
2022/11/19 00:45:50;;;;;;;32.25;14.95;;;;;;;5.19;100.00;100791.59;5045730;28;20091;-34
2022/11/19 00:48:16;;;;;;;30.52;14.38;;;;;;;5.18;100.00;100797.88;5046350;28;20049;-36
2022/11/19 00:50:42;;;;;;;31.95;14.82;;;;;;;5.13;100.00;100792.16;5028483;28;20086;-35
2022/11/19 00:53:07;;;;;;;33.08;14.38;;;;;;;5.13;100.00;100792.16;5030108;28;20471;-38
2022/11/19 00:55:32;;;;;;;30.10;14.13;;;;;;;5.16;100.00;100789.19;5049895;28;20059;-35
2022/11/19 00:57:58;;;;;;;31.00;14.43;;;;;;;5.07;100.00;100794.41;5044923;28;20106;-34
2022/11/19 01:00:23;;;;;;;29.30;14.32;;;;;;;5.11;100.00;100803.00;5029064;28;20029;-37
2022/11/19 01:02:48;;;;;;;28.58;13.73;;;;;;;5.07;100.00;100799.75;5028815;28;20025;-36
2022/11/19 01:05:14;;;;;;;30.52;13.95;;;;;;;5.00;100.00;100805.81;5028488;28;20237;-35
2022/11/19 01:07:39;;;;;;;31.20;12.98;;;;;;;4.92;100.00;100809.22;5033593;28;20025;-35
2022/11/19 01:10:05;;;;;;;23.15;12.80;;;;;;;4.88;100.00;100813.19;5045687;28;20051;-37
2022/11/19 01:13:33;;;;;;;28.40;13.10;;;;;;;4.78;100.00;100812.38;5037658;28;20025;-34
2022/11/19 01:15:15;;;;;;;25.95;12.15;;;;;;;4.79;100.00;100811.38;5032229;28;20041;-34
2022/11/19 01:17:41;;;;;;;26.00;12.75;;;;;;;4.76;100.00;100820.50;5045702;28;20475;-34
2022/11/19 01:20:07;;;;;;;30.05;12.77;;;;;;;4.68;100.00;100812.38;5048993;28;20056;-34
2022/11/19 01:22:32;;;;;;;25.45;11.57;;;;;;;4.65;100.00;100827.84;5042112;28;20332;-34
2022/11/19 01:24:57;;;;;;;24.08;12.52;;;;;;;4.61;100.00;100825.47;5043460;28;20113;-37
2022/11/19 01:27:23;;;;;;;23.40;12.25;;;;;;;4.57;100.00;100823.22;5044914;28;20057;-35
2022/11/19 01:29:48;;;;;;;24.08;12.57;;;;;;;4.56;100.00;100819.72;5034020;28;20032;-36
2022/11/19 01:32:13;;;;;;;27.20;13.35;;;;;;;4.61;100.00;100836.13;5037469;28;20033;-36
2022/11/19 01:34:39;;;;;;;23.42;12.40;;;;;;;4.60;100.00;100830.94;5047616;28;20025;-38
2022/11/19 01:37:04;;;;;;;26.05;13.57;;;;;;;4.66;100.00;100825.03;5048017;28;20029;-37
2022/11/19 01:39:29;;;;;;;30.95;14.05;;;;;;;4.56;100.00;100833.06;5043683;28;20112;-37
2022/11/19 01:41:55;;;;;;;32.38;15.75;;;;;;;4.60;100.00;100829.09;5044100;28;20116;-35
2022/11/19 01:44:58;;;;;;;30.45;14.82;;;;;;;4.50;100.00;100830.97;5044840;28;20123;-34
2022/11/19 01:47:23;;;;;;;40.45;17.67;;;;;;;4.46;100.00;100834.88;5034204;28;20376;-36
2022/11/19 01:49:48;;;;;;;44.42;18.80;;;;;;;4.40;100.00;100828.31;5049099;28;20053;-33
2022/11/19 01:52:14;;;;;;;46.72;18.95;;;;;;;4.31;100.00;100842.47;5035127;28;20017;-35
2022/11/19 01:54:43;;;;;;;39.97;17.95;;;;;;;4.26;100.00;100844.72;5028519;28;20470;-35
2022/11/19 01:57:12;;;;;;;39.55;18.15;;;;;;;4.18;100.00;100849.91;5028375;28;20099;-36
2022/11/19 01:59:37;;;;;;;46.42;20.23;;;;;;;4.12;100.00;100845.97;5045581;28;20500;-35
2022/11/19 02:02:03;;;;;;;44.63;17.55;;;;;;;4.12;100.00;100843.31;5042300;28;20040;-36
2022/11/19 02:04:29;;;;;;;49.63;20.80;;;;;;;4.07;100.00;100844.72;5033836;28;20049;-36
2022/11/19 02:06:54;;;;;;;51.38;21.65;;;;;;;4.04;100.00;100851.16;5046740;28;20183;-34
2022/11/19 02:09:20;;;;;;;49.78;21.33;;;;;;;4.04;100.00;100861.81;5041100;28;20033;-35
2022/11/19 02:12:22;;;;;;;56.83;22.65;;;;;;;3.97;100.00;100861.53;5042371;28;20049;-38
2022/11/19 02:15:06;;;;;;;48.55;20.80;;;;;;;4.01;100.00;100862.09;5045108;28;20106;-38
2022/11/19 02:18:02;;;;;;;47.63;22.05;;;;;;;3.99;100.00;100869.38;5035698;28;20037;-35
2022/11/19 02:20:42;;;;;;;52.10;22.67;;;;;;;4.00;100.00;100875.53;5036834;28;20074;-36
2022/11/19 02:23:12;;;;;;;48.10;21.35;;;;;;;3.95;100.00;100873.31;5042812;28;20392;-36
2022/11/19 02:25:58;;;;;;;51.28;21.80;;;;;;;3.91;100.00;100883.38;5038709;28;20108;-38
2022/11/19 02:28:30;;;;;;;57.35;23.38;;;;;;;3.95;100.00;100878.66;5037935;28;20550;-39
2022/11/19 02:31:02;;;;;;;57.92;23.48;;;;;;;3.90;100.00;100883.53;5030761;28;20032;-40
2022/11/19 02:33:37;;;;;;;58.55;22.40;;;;;;;3.88;100.00;100888.16;5044754;28;20418;-38
2022/11/19 02:36:08;;;;;;;63.75;24.35;;;;;;;3.82;100.00;100888.69;5040965;28;20021;-40
2022/11/19 02:39:01;;;;;;;55.58;23.83;;;;;;;3.81;100.00;100884.34;5048034;28;20033;-40
2022/11/19 02:41:32;;;;;;;63.53;24.10;;;;;;;3.74;100.00;100886.72;5033658;28;20032;-40
2022/11/19 02:46:51;;;;;;;62.50;24.55;;;;;;;3.57;100.00;100896.19;5038636;28;20549;-41
2022/11/19 02:49:18;;;;;;;76.10;24.42;;;;;;;3.52;100.00;100893.94;5032613;28;20120;-39
2022/11/19 02:51:43;;;;;;;64.38;24.23;;;;;;;3.47;100.00;100895.31;5041982;28;20033;-39
2022/11/19 02:54:09;;;;;;;67.00;23.98;;;;;;;3.42;100.00;100890.41;5038203;28;20037;-40
2022/11/19 02:56:50;;;;;;;63.85;24.05;;;;;;;3.39;100.00;100892.47;5050394;28;20112;-41
2022/11/19 03:04:48;;;;;;;60.55;24.38;;;;;;;3.28;100.00;100893.44;5043366;28;20047;-40
2022/11/19 03:07:16;;;;;;;67.78;24.02;;;;;;;3.28;100.00;100896.91;5046228;28;20033;-41
2022/11/19 03:09:43;;;;;;;;;;;;;;;3.23;100.00;100895.63;5034310;28;20038;-41
2022/11/19 03:12:16;;;;;;;71.07;23.90;;;;;;;3.23;100.00;100893.81;5021389;28;20330;-40
2022/11/19 03:17:57;;;;;;;64.95;25.77;;;;;;;3.27;100.00;100911.22;5036856;28;20203;-40
2022/11/19 03:20:27;;;;;;;59.17;23.30;;;;;;;3.26;100.00;100904.19;5048519;28;20025;-40
2022/11/19 03:23:00;;;;;;;63.80;25.30;;;;;;;3.26;100.00;100903.34;5045305;28;20083;-40
2022/11/19 03:25:28;;;;;;;64.80;25.73;;;;;;;3.28;100.00;100904.06;5045906;28;20025;-38
2022/11/19 03:27:58;;;;;;;63.55;25.70;;;;;;;3.24;100.00;100911.47;5044904;28;20045;-36
2022/11/19 03:30:24;;;;;;;59.83;24.77;;;;;;;3.21;100.00;100909.09;5048359;28;20025;-36
2022/11/19 03:32:53;;;;;;;63.55;26.15;;;;;;;3.20;100.00;100902.06;5033252;28;20036;-35
2022/11/19 03:35:27;;;;;;;65.78;26.50;;;;;;;3.16;100.00;100913.97;5022669;28;20115;-36
2022/11/19 03:37:56;;;;;;;60.58;25.30;;;;;;;3.19;100.00;100903.06;5043435;28;20040;-37
2022/11/19 03:40:22;;;;;;;64.07;25.38;;;;;;;3.21;100.00;100906.44;5033770;28;20467;-37
2022/11/19 03:42:51;;;;;;;67.00;25.95;;;;;;;3.21;100.00;100913.53;5026496;28;20026;-35
2022/11/19 03:45:20;;;;;;;74.63;27.95;;;;;;;3.22;100.00;100921.41;5029408;28;20057;-34
2022/11/19 03:47:49;;;;;;;71.38;28.05;;;;;;;3.21;100.00;100922.38;5031746;28;20524;-36
2022/11/19 03:50:33;;;;;;;;;;;;;;;3.21;100.00;100932.16;5049844;28;20079;-34
2022/11/19 03:52:58;;;;;;;60.17;26.05;;;;;;;3.11;100.00;100918.84;5048974;28;20011;-34
2022/11/19 03:55:30;;;;;;;57.15;26.52;;;;;;;3.10;100.00;100919.78;5032326;28;20448;-35
2022/11/19 03:58:01;;;;;;;61.78;24.95;;;;;;;3.08;100.00;100921.72;5035126;28;20033;-35
2022/11/19 04:00:26;;;;;;;61.30;26.65;;;;;;;3.05;100.00;100928.19;5048943;28;20052;-37
2022/11/19 04:02:52;;;;;;;67.28;28.73;;;;;;;2.98;100.00;100934.16;5048057;28;20053;-34
2022/11/19 04:05:17;;;;;;;61.08;26.13;;;;;;;2.99;100.00;100933.16;5039870;28;20057;-37
2022/11/19 04:07:42;;;;;;;64.50;26.92;;;;;;;3.02;100.00;100938.22;5044097;28;20029;-37
2022/11/19 04:10:08;;;;;;;63.75;27.73;;;;;;;3.04;100.00;100937.09;5040353;28;20025;-38
2022/11/19 04:12:33;;;;;;;63.70;27.70;;;;;;;3.00;100.00;100941.03;5037066;28;20364;-36
2022/11/19 04:14:59;;;;;;;69.03;28.80;;;;;;;2.96;100.00;100944.06;5038641;28;20094;-35
2022/11/19 04:17:24;;;;;;;67.57;28.48;;;;;;;2.97;100.00;100946.56;5033881;28;20087;-36
2022/11/19 04:19:49;;;;;;;62.17;28.35;;;;;;;2.96;100.00;100949.38;5028835;28;20557;-38
2022/11/19 04:22:15;;;;;;;64.05;27.73;;;;;;;2.94;100.00;100951.31;5028279;28;20507;-35
2022/11/19 04:24:40;;;;;;;57.22;26.17;;;;;;;2.88;100.00;100954.50;5033354;28;20506;-37
2022/11/19 04:27:05;;;;;;;58.88;26.70;;;;;;;2.80;100.00;100945.34;5038392;28;20028;-37
2022/11/19 04:29:31;;;;;;;67.90;29.35;;;;;;;2.79;100.00;100954.31;5044402;28;20025;-36
2022/11/19 04:31:56;;;;;;;66.07;29.67;;;;;;;2.79;100.00;100953.44;5033479;28;20059;-35
2022/11/19 04:34:21;;;;;;;68.63;30.67;;;;;;;2.76;100.00;100954.53;5035087;28;20021;-37
2022/11/19 04:36:46;;;;;;;69.22;30.15;;;;;;;2.72;100.00;100963.75;5035163;28;20033;-36
2022/11/19 04:39:12;;;;;;;64.15;27.52;;;;;;;2.68;100.00;100970.28;5031268;28;20030;-35
2022/11/19 04:41:38;;;;;;;73.32;32.15;;;;;;;2.64;100.00;100963.56;5027333;28;20079;-36
2022/11/19 04:44:04;;;;;;;65.75;30.08;;;;;;;2.64;100.00;100974.19;5029800;28;20037;-34
2022/11/19 04:46:29;;;;;;;67.75;30.80;;;;;;;2.58;100.00;100977.34;5033724;28;20508;-35
2022/11/19 04:48:55;;;;;;;69.03;30.33;;;;;;;2.52;100.00;100964.56;5038207;28;20041;-37
2022/11/19 04:51:22;;;;;;;65.45;30.52;;;;;;;2.52;100.00;100968.06;5026059;28;20034;-34
2022/11/19 04:53:47;;;;;;;71.90;30.73;;;;;;;2.52;100.00;100975.19;5026736;28;20052;-36
2022/11/19 04:56:13;;;;;;;70.05;32.35;;;;;;;2.48;100.00;100971.97;5034668;28;20355;-39
2022/11/19 04:58:38;;;;;;;70.43;29.48;;;;;;;2.47;100.00;100982.69;5047420;28;20033;-38
2022/11/19 05:01:04;;;;;;;73.18;32.35;;;;;;;2.44;100.00;100998.91;5045573;28;20056;-36
2022/11/19 05:03:29;;;;;;;74.13;31.08;;;;;;;2.45;100.00;100997.91;5047628;28;20063;-37
2022/11/19 05:05:54;;;;;;;67.97;31.50;;;;;;;2.32;100.00;101001.59;5029415;28;20034;-35
2022/11/19 05:08:20;;;;;;;72.00;31.55;;;;;;;2.30;100.00;100995.56;5041227;28;20033;-35
2022/11/19 05:10:45;;;;;;;75.30;33.30;;;;;;;2.23;100.00;100997.00;5038053;28;20033;-34
2022/11/19 05:13:11;;;;;;;68.03;32.33;;;;;;;2.20;100.00;101002.56;5032280;28;20099;-37
2022/11/19 05:15:36;;;;;;;68.90;31.58;;;;;;;2.17;100.00;100994.84;5040109;28;20172;-35
2022/11/19 05:18:02;;;;;;;70.90;32.50;;;;;;;2.13;100.00;100990.75;5032493;28;20044;-35
2022/11/19 05:20:28;;;;;;;70.32;33.20;;;;;;;2.11;100.00;100996.19;5040663;28;20033;-35
2022/11/19 05:22:54;;;;;;;76.22;33.20;;;;;;;2.12;100.00;100995.22;5035165;28;20462;-36
2022/11/19 05:25:19;;;;;;;77.22;32.53;;;;;;;2.13;100.00;100996.94;5046999;28;20037;-35
2022/11/19 05:27:44;;;;;;;57.25;27.27;;;;;;;2.12;100.00;100997.03;5030022;28;20040;-35
2022/11/19 05:30:10;;;;;;;70.32;31.67;;;;;;;2.07;100.00;101004.53;5028490;28;20515;-38
2022/11/19 05:32:36;;;;;;;65.65;29.90;;;;;;;2.07;100.00;101004.53;5032504;28;20053;-35
2022/11/19 05:35:02;;;;;;;76.70;32.72;;;;;;;2.03;100.00;101008.38;5045157;28;20032;-35
2022/11/19 05:37:27;;;;;;;65.57;30.63;;;;;;;1.97;100.00;101004.41;5047983;28;20127;-35
2022/11/19 05:39:53;;;;;;;67.95;31.98;;;;;;;1.93;100.00;101013.59;5038752;28;20115;-36
2022/11/19 05:42:18;;;;;;;62.83;29.98;;;;;;;1.89;100.00;101018.28;5041882;28;20140;-38
2022/11/19 05:44:43;;;;;;;65.25;29.45;;;;;;;1.87;100.00;101014.94;5040857;28;20115;-36
2022/11/19 05:47:09;;;;;;;65.47;28.77;;;;;;;1.82;100.00;101027.72;5043377;28;20060;-37
2022/11/19 05:49:34;;;;;;;66.72;29.98;;;;;;;1.79;100.00;101029.75;5031292;28;20037;-34
2022/11/19 05:51:59;;;;;;;66.75;31.73;;;;;;;1.77;100.00;101029.88;5031678;28;20039;-34
2022/11/19 05:54:25;;;;;;;62.45;29.40;;;;;;;1.69;100.00;101027.84;5031663;28;20071;-38
2022/11/19 05:56:50;;;;;;;52.13;25.30;;;;;;;1.61;100.00;101024.94;5041343;28;20033;-38
2022/11/19 05:59:15;;;;;;;62.13;30.50;;;;;;;1.60;100.00;101033.00;5046248;28;20025;-36
2022/11/19 06:01:41;;;;;;;56.78;27.70;;;;;;;1.57;100.00;101030.59;5033654;28;20067;-35
2022/11/19 06:04:07;;;;;;;64.15;29.77;;;;;;;1.54;100.00;101048.44;5030101;28;20403;-39
2022/11/19 06:06:32;;;;;;;58.72;28.48;;;;;;;1.52;100.00;101042.38;5032602;28;20526;-35
2022/11/19 06:08:58;;;;;;;57.22;28.63;;;;;;;1.49;100.00;101037.31;5031292;28;20112;-35
2022/11/19 06:14:07;;;;;;;58.20;27.20;;;;;;;1.49;100.00;101050.59;5047171;28;20415;-35
2022/11/19 06:16:32;;;;;;;54.20;25.40;;;;;;;1.45;100.00;101049.16;5045759;28;20065;-35
2022/11/19 06:18:58;;;;;;;59.25;28.38;;;;;;;1.41;100.00;101050.34;5034410;28;20422;-34
2022/11/19 06:21:23;;;;;;;57.30;28.30;;;;;;;1.44;100.00;101055.41;5039685;28;20367;-34
2022/11/19 06:23:48;;;;;;;52.60;25.38;;;;;;;1.41;100.00;101055.63;5030295;28;20390;-38
2022/11/19 06:26:24;;;;;;;58.55;27.75;;;;;;;1.37;100.00;101062.16;5030648;28;20447;-34
2022/11/19 06:28:50;;;;;;;56.60;26.80;;;;;;;1.41;100.00;101054.81;5046466;28;20037;-33
2022/11/19 06:31:15;;;;;;;51.15;25.92;;;;;;;1.38;100.00;101073.59;5048095;28;20513;-33
2022/11/19 06:33:41;;;;;;;53.95;25.58;;;;;;;1.38;100.00;101073.59;5043644;28;20214;-35
2022/11/19 06:36:06;;;;;;;55.75;26.75;;;;;;;1.35;100.00;101077.34;5046567;28;20021;-35
2022/11/19 06:38:32;;;;;;;52.05;24.67;;;;;;;1.35;100.00;101071.19;5046432;28;20605;-35
2022/11/19 06:40:57;;;;;;;54.47;27.00;;;;;;;1.33;100.00;101081.06;5049609;28;20090;-36
2022/11/19 06:43:22;;;;;;;49.13;25.60;;;;;;;1.34;100.00;101074.78;5029620;28;20059;-35
2022/11/19 06:45:48;;;;;;;48.42;24.02;;;;;;;1.29;100.00;101081.31;5035410;28;20036;-36
2022/11/19 06:48:13;;;;;;;46.70;22.20;;;;;;;1.23;100.00;101083.56;5049373;28;20021;-34
2022/11/19 06:50:38;;;;;;;54.17;26.02;;;;;;;1.25;100.00;101079.81;5025862;28;20129;-34
2022/11/19 06:53:04;;;;;;;51.72;25.00;;;;;;;1.28;100.00;101081.41;5028574;28;20120;-35
2022/11/19 06:55:29;;;;;;;53.35;25.08;;;;;;;1.28;100.00;101086.72;5030933;28;20021;-37
2022/11/19 06:57:56;;;;;;;54.83;26.83;;;;;;;1.28;100.00;101081.41;5050365;28;20051;-36
2022/11/19 07:00:21;;;;;;;53.55;25.92;;;;;;;1.26;100.00;101093.94;5048769;28;20033;-37
2022/11/19 07:02:47;;;;;;;51.47;25.20;;;;;;;1.25;100.00;101094.91;5050616;28;20037;-36
2022/11/19 07:05:12;;;;;;;52.60;25.67;;;;;;;1.21;100.00;101098.72;5049246;28;20021;-35
2022/11/19 07:07:37;;;;;;;51.22;24.02;;;;;;;1.24;100.00;101107.31;5048854;28;20041;-35
2022/11/19 07:10:03;;;;;;;52.88;24.92;;;;;;;1.25;100.00;101100.19;5050476;28;20384;-34
2022/11/19 07:12:28;;;;;;;50.83;23.92;;;;;;;1.22;100.00;101097.78;5050306;28;20056;-35
2022/11/19 07:14:54;;;;;;;54.80;25.55;;;;;;;1.20;100.00;101105.00;5032254;28;20395;-37
2022/11/19 07:17:19;;;;;;;51.90;24.58;;;;;;;1.18;100.00;101112.22;5030437;28;20026;-35
2022/11/19 07:19:44;;;;;;;51.38;25.33;;;;;;;1.17;100.00;101111.38;5030509;28;20029;-35
2022/11/19 07:22:10;;;;;;;51.42;24.00;;;;;;;1.20;100.00;101116.44;5029546;28;20026;-36
2022/11/19 07:24:35;;;;;;;56.55;26.17;;;;;;;1.21;100.00;101106.69;5032428;28;20029;-39
2022/11/19 07:27:01;;;;;;;54.33;25.33;;;;;;;1.20;100.00;101121.75;5045163;28;20021;-36
2022/11/19 07:29:26;;;;;;;58.72;26.60;;;;;;;1.16;100.00;101124.72;5039392;28;20025;-37
2022/11/19 07:31:52;;;;;;;52.85;24.52;;;;;;;1.10;100.00;101126.88;5045169;28;20487;-35
2022/11/19 07:34:18;;;;;;;51.80;25.25;;;;;;;1.17;100.00;101143.19;5047611;28;20452;-34
2022/11/19 07:36:44;;;;;;;56.30;24.88;;;;;;;1.17;100.00;101142.34;5049111;28;20506;-35
2022/11/19 07:39:09;;;;;;;48.05;24.13;;;;;;;1.19;100.00;101140.44;5049533;28;20536;-35
2022/11/19 07:44:19;;;;;;;48.67;19.48;;;;;;;1.16;100.00;101140.63;5049360;28;20084;-37
2022/11/19 07:46:44;;;;;;;52.67;23.67;;;;;;;1.10;100.00;101148.09;5046647;28;20036;-37
2022/11/19 07:49:10;;;;;;;47.72;23.67;;;;;;;1.10;100.00;101145.44;5046944;28;20024;-37
2022/11/19 07:51:35;;;;;;;47.40;24.63;;;;;;;1.06;100.00;101151.09;5036902;28;20121;-38
2022/11/19 07:54:01;;;;;;;49.15;23.92;;;;;;;1.04;100.00;101151.19;5030562;28;20152;-34
2022/11/19 07:56:26;;;;;;;49.45;23.98;;;;;;;1.08;100.00;101143.88;5031475;28;20029;-38
2022/11/19 07:58:52;;;;;;;48.28;24.13;;;;;;;1.14;100.00;101163.78;5030576;28;20175;-36
2022/11/19 08:01:20;;;;;;;52.03;24.98;;;;;;;1.17;100.00;101159.09;5029798;28;20087;-36
2022/11/19 08:03:46;;;;;;;50.97;23.30;;;;;;;1.18;100.00;101173.19;5030156;28;20348;-38
2022/11/19 08:06:14;;;;;;;45.35;23.30;;;;;;;1.16;100.00;101175.09;5030887;28;20021;-37
2022/11/19 08:08:39;;;;;;;47.53;22.70;;;;;;;1.14;100.00;101158.50;5030441;28;20036;-36
2022/11/19 08:11:06;;;;;;;47.58;23.20;;;;;;;1.12;100.00;101166.53;5030705;28;20115;-34
2022/11/19 08:13:33;;;;;;;48.97;23.80;;;;;;;1.11;100.00;101175.47;5029544;28;20025;-35
2022/11/19 08:16:06;;;;;;;50.30;23.77;;;;;;;1.12;100.00;101173.66;5030551;28;20121;-34
2022/11/19 08:18:32;;;;;;;47.22;23.15;;;;;;;1.14;100.00;101183.19;5031006;28;20044;-34
2022/11/19 08:21:09;;;;;;;46.17;23.10;;;;;;;1.18;100.00;101181.16;5030735;28;20029;-36
2022/11/19 08:23:35;;;;;;;43.53;22.70;;;;;;;1.23;100.00;101200.22;5030096;28;20032;-35
2022/11/19 08:26:01;;;;;;;46.65;24.00;;;;;;;1.28;100.00;101187.47;5030870;28;20067;-35
2022/11/19 08:28:27;;;;;;;43.53;20.73;;;;;;;1.29;100.00;101189.16;5030477;28;20102;-37
2022/11/19 08:30:54;;;;;;;46.22;22.98;;;;;;;1.27;100.00;101185.78;5030278;28;20029;-36
2022/11/19 08:33:19;;;;;;;47.58;22.58;;;;;;;1.23;100.00;101181.66;5028886;28;20055;-36
2022/11/19 08:35:44;;;;;;;45.22;22.00;;;;;;;1.27;100.00;101188.44;5030472;28;20021;-34
2022/11/19 08:38:10;;;;;;;45.72;22.60;;;;;;;1.28;100.00;101187.47;5031253;28;20091;-39
2022/11/19 08:40:35;;;;;;;47.50;22.63;;;;;;;1.35;100.00;101185.22;5030674;28;20021;-38
2022/11/19 08:43:01;;;;;;;45.85;23.17;;;;;;;1.38;100.00;101193.78;5030410;28;20032;-38
2022/11/19 08:45:33;;;;;;;46.28;22.85;;;;;;;1.39;100.00;101195.47;5030497;28;20083;-36
2022/11/19 08:48:01;;;;;;;51.28;23.90;;;;;;;1.47;100.00;101201.03;5029634;28;20400;-38
2022/11/19 08:50:27;;;;;;;49.03;24.30;;;;;;;1.40;100.00;101205.13;5030577;28;20063;-35
2022/11/19 08:53:00;;;;;;;39.97;21.45;;;;;;;1.46;100.00;101202.00;5030493;28;20037;-39
2022/11/19 08:55:27;;;;;;;43.17;23.23;;;;;;;1.42;100.00;101211.16;5030712;28;20032;-37
2022/11/19 08:57:59;;;;;;;44.63;22.25;;;;;;;1.53;100.00;101203.25;5029211;28;20029;-34
2022/11/19 09:00:24;;;;;;;47.38;23.38;;;;;;;1.57;100.00;101210.97;5030888;28;20459;-36
2022/11/19 09:02:50;;;;;;;45.22;22.40;;;;;;;1.59;100.00;101220.50;5029212;28;20037;-35
2022/11/19 09:05:15;;;;;;;45.35;21.73;;;;;;;1.56;100.00;101214.59;5029128;28;20032;-33
2022/11/19 09:07:40;;;;;;;45.53;21.90;;;;;;;1.48;100.00;101215.16;5030351;28;20455;-34
2022/11/19 09:10:06;;;;;;;40.20;20.73;;;;;;;1.47;100.00;101222.25;5012622;28;20064;-36
2022/11/19 09:12:32;;;;;;;41.30;20.65;;;;;;;1.41;100.00;101216.56;5029931;28;20391;-35
2022/11/19 09:14:57;;;;;;;40.35;20.38;;;;;;;1.43;100.00;101225.28;5029491;28;20108;-35
2022/11/19 09:17:23;;;;;;;39.50;20.13;;;;;;;1.43;100.00;101234.06;5029408;28;20021;-35
2022/11/19 09:19:48;;;;;;;41.90;20.35;;;;;;;1.36;100.00;101231.97;5030589;28;20450;-37
2022/11/19 09:22:14;;;;;;;47.17;22.40;;;;;;;1.31;100.00;101234.97;5029581;28;20076;-36
2022/11/19 09:24:39;;;;;;;40.20;20.52;;;;;;;1.32;100.00;101241.97;5030423;28;20026;-37
2022/11/19 09:27:04;;;;;;;43.15;22.35;;;;;;;1.33;100.00;101233.06;5029341;28;20022;-37
2022/11/19 09:29:30;;;;;;;40.30;21.15;;;;;;;1.37;100.00;101234.53;5029381;28;20021;-36
2022/11/19 09:31:55;;;;;;;42.70;21.58;;;;;;;1.35;100.00;101225.00;5030391;28;20087;-34
2022/11/19 09:34:20;;;;;;;44.35;20.92;;;;;;;1.39;100.00;101229.09;5029529;28;20193;-35
2022/11/19 09:36:46;;;;;;;39.33;20.85;;;;;;;1.32;100.00;101241.97;5028122;28;20104;-34
2022/11/19 09:39:11;;;;;;;41.92;20.83;;;;;;;1.30;100.00;101244.72;5028991;28;20388;-38
2022/11/19 09:41:50;;;;;;;35.03;17.80;;;;;;;1.22;100.00;101248.91;5029382;28;20029;-34
2022/11/19 09:44:37;;;;;;;41.38;21.65;;;;;;;1.22;100.00;101256.88;5032262;28;20029;-33
2022/11/19 09:47:24;;;;;;;37.33;19.23;;;;;;;1.25;100.00;101267.25;5028739;28;20026;-33
2022/11/19 09:49:55;;;;;;;39.17;19.88;;;;;;;1.26;100.00;101276.88;5045814;28;20098;-37
2022/11/19 09:52:24;;;;;;;39.25;19.13;;;;;;;1.32;100.00;101279.09;5047056;28;20021;-34
2022/11/19 09:54:52;;;;;;;39.00;19.02;;;;;;;1.35;100.00;101280.69;5037298;28;20040;-36
2022/11/19 09:57:23;;;;;;;38.67;19.30;;;;;;;1.36;100.00;101280.56;5030902;28;20520;-38
2022/11/19 09:59:49;;;;;;;39.90;21.00;;;;;;;1.28;100.00;101278.47;5044181;28;20071;-37
2022/11/19 10:02:23;;;;;;;42.55;21.13;;;;;;;1.22;100.00;101288.69;5047493;28;20032;-35
2022/11/19 10:04:50;;;;;;;37.40;19.33;;;;;;;1.17;100.00;101293.47;5026089;28;20025;-36
2022/11/19 10:07:44;;;;;;;41.30;20.48;;;;;;;0.98;100.00;101285.97;5009373;28;20129;-38
2022/11/19 10:10:40;;;;;;;46.13;20.30;;;;;;;0.93;100.00;101283.66;5036690;28;20021;-35
2022/11/19 10:13:16;;;;;;;35.30;18.73;;;;;;;0.89;100.00;101279.50;5037847;28;20025;-35
2022/11/19 10:16:02;;;;;;;44.03;20.92;;;;;;;0.88;100.00;101286.63;5038503;28;20072;-38
2022/11/19 10:18:38;;;;;;;38.88;19.90;;;;;;;0.87;100.00;101290.22;5046010;28;20440;-36
2022/11/19 10:21:10;;;;;;;37.08;18.38;;;;;;;0.86;100.00;101292.97;5028256;28;20040;-38
2022/11/19 10:23:41;;;;;;;35.45;18.38;;;;;;;0.81;100.00;101289.81;5029455;28;20029;-37
2022/11/19 10:26:11;;;;;;;38.35;18.73;;;;;;;0.84;100.00;101292.22;5031384;28;20039;-38
2022/11/19 10:28:39;;;;;;;38.63;19.55;;;;;;;0.93;100.00;101285.47;5045559;28;20041;-37
2022/11/19 10:31:15;;;;;;;37.65;18.90;;;;;;;0.96;100.00;101295.84;5035861;28;20037;-37
2022/11/19 10:33:46;;;;;;;42.72;20.23;;;;;;;0.91;100.00;101290.84;5032772;28;20025;-39
2022/11/19 10:36:27;;;;;;;39.88;19.48;;;;;;;0.87;100.00;101286.75;5031623;28;20029;-35
2022/11/19 10:39:12;;;;;;;37.88;18.70;;;;;;;0.86;100.00;101285.03;5036761;28;20407;-35
2022/11/19 10:41:53;;;;;;;37.15;17.95;;;;;;;0.90;100.00;101289.16;5032121;28;20091;-35
2022/11/19 10:44:41;;;;;;;42.05;19.25;;;;;;;0.88;100.00;101277.81;5028962;28;20110;-36
2022/11/19 10:47:10;;;;;;;39.38;18.70;;;;;;;0.91;100.00;101279.41;5028701;28;20037;-36
2022/11/19 10:49:40;;;;;;;38.17;18.30;;;;;;;0.85;100.00;101276.25;5041431;28;20037;-35
2022/11/19 10:52:12;;;;;;;36.47;18.17;;;;;;;0.87;100.00;101268.19;5047211;28;20029;-37
2022/11/19 10:54:38;;;;;;;41.80;19.58;;;;;;;0.94;100.00;101268.59;5040341;28;20159;-37
2022/11/19 10:57:06;;;;;;;38.10;19.70;;;;;;;0.94;100.00;101268.59;5039731;28;20037;-36
2022/11/19 10:59:32;;;;;;;37.42;19.00;;;;;;;0.93;100.00;101262.44;5028853;28;20029;-35
2022/11/19 11:02:02;;;;;;;39.95;20.05;;;;;;;0.97;100.00;101269.22;5031147;28;20087;-38
2022/11/19 11:04:28;;;;;;;36.53;19.45;;;;;;;0.84;100.00;101258.66;5046457;28;20136;-37
2022/11/19 11:06:56;;;;;;;40.67;20.20;;;;;;;0.84;100.00;101258.66;5039632;28;20112;-35
2022/11/19 11:09:30;;;;;;;37.72;18.73;;;;;;;0.78;100.00;101264.38;5030757;28;20037;-36
2022/11/19 11:14:52;;;;;;;36.42;18.52;;;;;;;0.84;100.00;101273.69;5031338;28;20103;-38
2022/11/19 11:17:19;;;;;;;37.58;19.63;;;;;;;0.93;100.00;101283.66;5032041;28;20068;-38
2022/11/19 11:19:55;;;;;;;40.80;20.63;;;;;;;0.88;100.00;101272.53;5045509;28;20032;-38
2022/11/19 11:22:21;;;;;;;35.30;19.02;;;;;;;0.83;100.00;101272.84;5051969;28;20025;-38
2022/11/19 11:24:46;;;;;;;39.42;21.02;;;;;;;0.92;100.00;101289.88;5050206;28;20044;-38
2022/11/19 11:27:22;;;;;;;39.83;18.88;;;;;;;0.96;100.00;101286.06;5050304;28;20060;-36
2022/11/19 11:29:48;;;;;;;39.53;19.15;;;;;;;0.89;100.00;101276.84;5037445;28;20028;-35
2022/11/19 11:32:29;;;;;;;39.08;19.45;;;;;;;0.83;100.00;101264.91;5039243;28;20395;-36
2022/11/19 11:34:55;;;;;;;35.53;18.98;;;;;;;0.84;100.00;101263.09;5034206;28;20036;-35
2022/11/19 11:37:21;;;;;;;37.00;19.33;;;;;;;0.89;100.00;101266.25;5035360;28;20472;-35